createdAt,value
2022-12-19T00:02:25.814Z,-1.58
2022-12-19T00:04:52.200Z,-1.60
2022-12-19T00:07:18.530Z,-1.63
2022-12-19T00:09:44.844Z,-1.60
2022-12-19T00:12:15.885Z,-1.62
2022-12-19T00:14:43.827Z,-1.61
2022-12-19T00:17:10.146Z,-1.62
2022-12-19T00:19:36.768Z,-1.67
2022-12-19T00:22:07.103Z,-1.55
2022-12-19T00:24:36.026Z,-1.67
2022-12-19T00:27:02.358Z,-1.63
2022-12-19T00:29:28.684Z,-1.62
2022-12-19T00:31:55.056Z,-1.48
2022-12-19T00:34:21.570Z,-1.57
2022-12-19T00:36:47.892Z,-1.56
2022-12-19T00:39:14.229Z,-1.66
2022-12-19T00:41:42.583Z,-1.70
2022-12-19T00:44:14.243Z,-1.62
2022-12-19T00:46:41.511Z,-1.62
2022-12-19T00:49:08.406Z,-1.57
2022-12-19T00:51:36.659Z,-1.60
2022-12-19T00:54:05.297Z,-1.41
2022-12-19T00:56:37.529Z,-1.48
2022-12-19T00:59:05.005Z,-1.46
2022-12-19T01:01:35.132Z,-1.39
2022-12-19T01:06:49.417Z,-1.44
2022-12-19T01:09:15.842Z,-1.36
2022-12-19T01:11:42.249Z,-1.25
2022-12-19T01:14:09.524Z,-1.24
2022-12-19T01:16:35.887Z,-1.27
2022-12-19T01:19:02.241Z,-1.20
2022-12-19T01:21:31.495Z,-1.23
2022-12-19T01:23:57.796Z,-1.19
2022-12-19T01:26:24.150Z,-1.12
2022-12-19T01:28:50.497Z,-1.14
2022-12-19T01:31:16.866Z,-1.10
2022-12-19T01:33:45.562Z,-1.10
2022-12-19T01:36:11.890Z,-1.21
2022-12-19T01:38:38.226Z,-1.22
2022-12-19T01:41:05.354Z,-1.13
2022-12-19T01:43:53.089Z,-1.18
2022-12-19T01:46:24.773Z,-1.15
2022-12-19T01:48:54.432Z,-1.14
2022-12-19T01:51:25.067Z,-1.09
2022-12-19T01:53:54.200Z,-1.13
2022-12-19T01:56:26.182Z,-1.03
2022-12-19T01:59:05.554Z,-1.01
2022-12-19T02:01:34.648Z,-1.00
2022-12-19T02:04:02.269Z,-0.98
2022-12-19T02:06:30.406Z,-0.93
2022-12-19T02:08:57.174Z,-0.89
2022-12-19T02:11:23.554Z,-0.81
2022-12-19T02:13:49.953Z,-0.92
2022-12-19T02:16:31.467Z,-0.85
2022-12-19T02:19:04.305Z,-0.75
2022-12-19T02:21:44.316Z,-0.77
2022-12-19T02:24:46.643Z,-0.85
2022-12-19T02:27:18.885Z,-0.82
2022-12-19T02:30:16.123Z,-0.72
2022-12-19T02:32:54.711Z,-0.70
2022-12-19T02:35:30.065Z,-0.62
2022-12-19T02:38:13.282Z,-0.56
2022-12-19T02:40:55.398Z,-0.50
2022-12-19T02:43:23.773Z,-0.48
2022-12-19T02:45:51.703Z,-0.48
2022-12-19T02:48:19.958Z,-0.39
2022-12-19T02:50:47.948Z,-0.37
2022-12-19T02:53:17.260Z,-0.18
2022-12-19T02:56:11.484Z,-0.29
2022-12-19T02:59:01.849Z,-0.18
2022-12-19T03:01:34.384Z,-0.11
2022-12-19T03:04:13.373Z,-0.19
2022-12-19T03:07:02.627Z,-0.09
2022-12-19T03:09:37.283Z,-0.12
2022-12-19T03:12:17.161Z,-0.06
2022-12-19T03:14:46.877Z,-0.13
2022-12-19T03:17:13.246Z,-0.10
2022-12-19T03:19:41.021Z,-0.05
2022-12-19T03:22:08.101Z,0.02
2022-12-19T03:24:34.507Z,0.02
2022-12-19T03:27:11.144Z,0.08
2022-12-19T03:29:43.007Z,0.13
2022-12-19T03:32:13.058Z,0.24
2022-12-19T03:34:47.859Z,0.20
2022-12-19T03:37:19.733Z,0.30
2022-12-19T03:39:51.549Z,0.31
2022-12-19T03:42:19.738Z,0.23
2022-12-19T03:44:50.034Z,0.28
2022-12-19T03:47:39.052Z,0.28
2022-12-19T03:50:07.594Z,0.21
2022-12-19T03:52:41.619Z,0.32
2022-12-19T03:55:19.020Z,0.29
2022-12-19T03:57:57.140Z,0.28
2022-12-19T04:00:25.146Z,0.43
2022-12-19T04:02:55.713Z,0.30
2022-12-19T04:05:25.131Z,0.28
2022-12-19T04:07:56.151Z,0.35
2022-12-19T04:10:26.159Z,0.39
2022-12-19T04:13:01.092Z,0.39
2022-12-19T04:16:06.427Z,0.39
2022-12-19T04:18:33.685Z,0.42
2022-12-19T04:21:11.271Z,0.50
2022-12-19T04:23:45.012Z,0.34
2022-12-19T04:26:13.593Z,0.28
2022-12-19T04:28:52.754Z,0.35
2022-12-19T04:31:20.873Z,0.28
2022-12-19T04:33:47.340Z,0.21
2022-12-19T04:36:13.736Z,0.21
2022-12-19T04:38:40.282Z,0.31
2022-12-19T04:41:06.797Z,0.25
2022-12-19T04:43:33.152Z,0.33
2022-12-19T04:45:59.993Z,0.28
2022-12-19T04:48:26.413Z,0.27
2022-12-19T04:50:52.803Z,0.29
2022-12-19T04:53:19.282Z,0.24
2022-12-19T04:55:45.614Z,0.13
2022-12-19T04:58:11.974Z,0.17
2022-12-19T05:00:38.620Z,0.12
2022-12-19T05:03:05.086Z,0.04
2022-12-19T05:05:31.589Z,0.05
2022-12-19T05:07:57.922Z,0.19
2022-12-19T05:10:24.305Z,0.24
2022-12-19T05:12:50.634Z,0.27
2022-12-19T05:15:17.170Z,0.15
2022-12-19T05:17:43.478Z,0.15
2022-12-19T05:20:10.297Z,0.24
2022-12-19T05:22:36.648Z,0.22
2022-12-19T05:25:03.071Z,0.31
2022-12-19T05:27:29.402Z,0.26
2022-12-19T05:29:55.739Z,0.27
2022-12-19T05:32:22.176Z,0.27
2022-12-19T05:34:48.494Z,0.32
2022-12-19T05:37:14.847Z,0.33
2022-12-19T05:39:41.151Z,0.33
2022-12-19T05:42:12.178Z,0.40
2022-12-19T05:44:38.911Z,0.34
2022-12-19T05:47:05.418Z,0.37
2022-12-19T05:49:31.783Z,0.29
2022-12-19T05:51:58.119Z,0.30
2022-12-19T05:54:25.674Z,0.28
2022-12-19T05:56:52.115Z,0.28
2022-12-19T05:59:18.465Z,0.50
2022-12-19T06:01:44.909Z,0.49
2022-12-19T06:04:11.307Z,0.60
2022-12-19T06:06:37.630Z,0.58
2022-12-19T06:09:04.011Z,0.64
2022-12-19T06:11:30.369Z,0.72
2022-12-19T06:13:56.729Z,0.64
2022-12-19T06:16:23.735Z,0.64
2022-12-19T06:18:50.196Z,0.71
2022-12-19T06:21:19.290Z,0.77
2022-12-19T06:23:46.267Z,0.80
2022-12-19T06:26:19.574Z,0.96
2022-12-19T06:28:47.777Z,1.01
2022-12-19T06:31:14.715Z,1.06
2022-12-19T06:33:41.293Z,1.09
2022-12-19T06:36:16.496Z,1.08
2022-12-19T06:38:42.915Z,1.08
2022-12-19T06:41:10.317Z,1.16
2022-12-19T06:43:36.731Z,1.19
2022-12-19T06:46:03.206Z,1.21
2022-12-19T06:48:29.638Z,1.24
2022-12-19T06:50:55.968Z,1.26
2022-12-19T06:53:22.479Z,1.25
2022-12-19T06:55:52.281Z,1.31
2022-12-19T06:58:23.969Z,1.27
2022-12-19T07:00:51.164Z,1.20
2022-12-19T07:03:23.198Z,1.14
2022-12-19T07:05:49.913Z,1.15
2022-12-19T07:08:16.462Z,1.14
2022-12-19T07:10:42.822Z,1.23
2022-12-19T07:13:09.168Z,1.14
2022-12-19T07:15:36.290Z,1.20
2022-12-19T07:18:05.444Z,1.22
2022-12-19T07:20:34.378Z,1.17
2022-12-19T07:23:03.107Z,1.19
2022-12-19T07:25:29.480Z,1.13
2022-12-19T07:27:56.349Z,1.13
2022-12-19T07:30:22.711Z,1.21
2022-12-19T07:32:49.164Z,1.24
2022-12-19T07:35:15.522Z,1.32
2022-12-19T07:37:41.910Z,1.26
2022-12-19T07:40:08.851Z,1.27
2022-12-19T07:42:35.161Z,1.30
2022-12-19T07:45:01.592Z,1.37
2022-12-19T07:47:28.045Z,1.34
2022-12-19T07:49:54.375Z,1.30
2022-12-19T07:52:20.699Z,1.36
2022-12-19T07:54:47.056Z,1.37
2022-12-19T07:57:13.419Z,1.43
2022-12-19T07:59:39.735Z,1.54
2022-12-19T08:02:06.712Z,1.55
2022-12-19T08:04:34.504Z,1.54
2022-12-19T08:07:00.921Z,1.52
2022-12-19T08:09:27.231Z,1.53
2022-12-19T08:11:54.668Z,1.68
2022-12-19T08:14:21.095Z,1.63
2022-12-19T08:17:18.566Z,1.65
2022-12-19T08:19:33.749Z,1.69
2022-12-19T08:22:00.139Z,1.72
2022-12-19T08:24:26.512Z,1.80
2022-12-19T08:26:52.835Z,1.81
2022-12-19T08:29:19.176Z,1.84
2022-12-19T08:31:45.508Z,1.76
2022-12-19T08:34:11.844Z,1.86
2022-12-19T08:36:38.167Z,1.92
2022-12-19T08:39:04.690Z,1.96
2022-12-19T08:41:31.072Z,1.84
2022-12-19T08:43:57.725Z,1.81
2022-12-19T08:46:24.528Z,1.93
2022-12-19T08:48:51.062Z,2.01
2022-12-19T08:51:17.680Z,1.96
2022-12-19T08:53:45.675Z,2.19
2022-12-19T08:56:17.678Z,2.12
2022-12-19T08:58:44.416Z,2.10
2022-12-19T09:01:14.326Z,2.18
2022-12-19T09:04:00.004Z,2.16
2022-12-19T09:06:27.614Z,2.06
2022-12-19T09:08:54.026Z,2.02
2022-12-19T09:11:26.733Z,2.04
2022-12-19T09:13:56.424Z,2.16
2022-12-19T09:16:24.481Z,2.19
2022-12-19T09:18:53.803Z,2.14
2022-12-19T09:21:22.891Z,2.17
2022-12-19T09:23:51.416Z,2.22
2022-12-19T09:26:19.290Z,2.21
2022-12-19T09:28:46.542Z,2.33
2022-12-19T09:31:15.890Z,2.40
2022-12-19T09:33:44.000Z,2.38
2022-12-19T09:36:19.970Z,2.40
2022-12-19T09:38:47.232Z,2.39
2022-12-19T09:41:13.488Z,2.52
2022-12-19T09:43:50.676Z,2.53
2022-12-19T09:46:18.119Z,2.48
2022-12-19T09:48:55.189Z,2.58
2022-12-19T09:51:38.120Z,2.58
2022-12-19T09:54:16.400Z,2.78
2022-12-19T09:56:45.596Z,2.81
2022-12-19T09:59:41.585Z,2.93
2022-12-19T10:02:40.876Z,3.03
2022-12-19T10:06:15.095Z,3.10
2022-12-19T10:08:18.984Z,3.13
2022-12-19T10:12:46.511Z,3.19
2022-12-19T10:14:05.041Z,3.25
2022-12-19T10:17:22.646Z,3.20
2022-12-19T10:20:01.265Z,3.22
2022-12-19T10:22:37.578Z,3.17
2022-12-19T10:25:25.618Z,3.21
2022-12-19T10:28:05.909Z,3.29
2022-12-19T10:30:44.979Z,3.27
2022-12-19T10:33:35.850Z,3.30
2022-12-19T10:36:08.568Z,3.26
2022-12-19T10:38:51.346Z,3.28
2022-12-19T10:41:25.726Z,3.11
2022-12-19T10:43:55.013Z,3.06
2022-12-19T10:46:48.869Z,3.13
2022-12-19T10:49:21.177Z,3.04
2022-12-19T10:52:01.124Z,3.09
2022-12-19T10:54:36.282Z,2.99
2022-12-19T10:57:22.460Z,3.04
2022-12-19T11:00:05.945Z,3.13
2022-12-19T11:02:47.961Z,3.14
2022-12-19T11:05:23.363Z,3.25
2022-12-19T11:08:01.912Z,3.28
2022-12-19T11:13:01.009Z,3.34
2022-12-19T11:18:56.494Z,3.45
2022-12-19T11:20:47.855Z,3.34
2022-12-19T11:29:18.755Z,3.37
2022-12-19T11:29:30.007Z,3.38
2022-12-19T11:30:42.815Z,3.32
2022-12-19T11:30:43.935Z,3.10
2022-12-19T11:32:31.872Z,3.16
2022-12-19T11:34:19.144Z,3.20
2022-12-19T11:37:11.921Z,3.21
2022-12-19T11:39:53.833Z,3.30
2022-12-19T11:42:26.175Z,3.44
2022-12-19T11:45:11.717Z,3.59
2022-12-19T11:47:44.668Z,3.56
2022-12-19T11:50:34.892Z,3.57
2022-12-19T11:53:19.219Z,3.76
2022-12-19T11:55:51.506Z,3.78
2022-12-19T11:58:17.857Z,3.76
2022-12-19T12:00:53.847Z,3.62
2022-12-19T12:03:49.523Z,3.72
2022-12-19T12:06:33.258Z,3.75
2022-12-19T12:11:40.006Z,3.69
2022-12-19T12:20:08.977Z,3.58
2022-12-19T12:28:38.046Z,3.57
2022-12-19T12:31:05.780Z,3.54
2022-12-19T12:31:22.780Z,3.73
2022-12-19T12:31:48.870Z,3.61
2022-12-19T12:32:05.784Z,3.71
2022-12-19T12:35:38.052Z,3.73
2022-12-19T12:38:18.740Z,3.75
2022-12-19T12:40:58.853Z,3.77
2022-12-19T12:43:37.063Z,3.62
2022-12-19T12:46:04.940Z,3.66
2022-12-19T12:48:42.580Z,3.58
2022-12-19T12:51:10.313Z,3.58
2022-12-19T12:53:40.622Z,3.61
2022-12-19T12:56:10.196Z,3.62
2022-12-19T12:58:46.591Z,3.49
2022-12-19T13:01:20.148Z,3.39
2022-12-19T13:04:04.517Z,3.48
2022-12-19T13:06:35.342Z,3.50
2022-12-19T13:09:20.043Z,3.48
2022-12-19T13:11:55.144Z,3.62
2022-12-19T13:14:36.792Z,3.64
2022-12-19T13:17:05.315Z,3.65
2022-12-19T13:19:34.057Z,3.63
2022-12-19T13:22:03.447Z,3.67
2022-12-19T13:24:40.242Z,3.55
2022-12-19T13:27:18.777Z,3.50
2022-12-19T13:30:00.410Z,3.38
2022-12-19T13:32:31.928Z,3.42
2022-12-19T13:35:13.495Z,3.51
2022-12-19T13:40:01.457Z,3.50
2022-12-19T13:41:30.173Z,3.55
2022-12-19T13:43:59.778Z,3.56
2022-12-19T13:46:41.222Z,3.62
2022-12-19T13:49:29.655Z,3.60
2022-12-19T13:52:00.808Z,3.64
2022-12-19T13:54:36.301Z,3.59
2022-12-19T13:57:09.288Z,3.66
2022-12-19T13:59:38.811Z,3.80
2022-12-19T14:02:17.843Z,3.88
2022-12-19T14:04:45.409Z,3.81
2022-12-19T14:07:41.071Z,3.62
2022-12-19T14:11:34.975Z,3.39
2022-12-19T14:14:01.509Z,3.39
2022-12-19T14:15:52.340Z,3.39
2022-12-19T14:18:42.489Z,3.39
2022-12-19T14:22:05.620Z,3.32
2022-12-19T14:24:15.926Z,3.27
2022-12-19T14:28:23.599Z,3.33
2022-12-19T14:30:19.436Z,3.37
2022-12-19T14:33:40.835Z,3.33
2022-12-19T14:36:10.977Z,3.19
2022-12-19T14:39:21.131Z,3.17
2022-12-19T14:41:07.929Z,3.15
2022-12-19T14:44:00.310Z,3.11
2022-12-19T14:51:42.361Z,3.12
2022-12-19T14:54:07.106Z,3.14
2022-12-19T14:54:24.628Z,3.02
2022-12-19T14:56:04.139Z,2.98
2022-12-19T14:58:55.865Z,2.98
2022-12-19T15:01:10.131Z,3.03
2022-12-19T15:03:46.368Z,2.90
2022-12-19T15:07:06.620Z,2.85
2022-12-19T15:11:02.548Z,3.02
2022-12-19T15:14:49.362Z,2.91
2022-12-19T15:15:18.526Z,2.88
2022-12-19T15:17:48.059Z,2.87
2022-12-19T15:20:14.899Z,2.90
2022-12-19T15:22:41.352Z,2.90
2022-12-19T15:25:35.809Z,2.92
2022-12-19T15:28:02.001Z,2.88
2022-12-19T15:30:32.794Z,2.95
2022-12-19T15:32:59.126Z,2.98
2022-12-19T15:35:25.472Z,2.90
2022-12-19T15:37:51.815Z,2.87
2022-12-19T15:40:18.663Z,2.85
2022-12-19T15:42:52.108Z,2.85
2022-12-19T15:45:18.525Z,2.82
2022-12-19T15:47:45.397Z,2.88
2022-12-19T15:50:30.031Z,2.80
2022-12-19T15:52:58.675Z,2.76
2022-12-19T15:55:29.052Z,2.77
2022-12-19T15:57:58.720Z,2.62
2022-12-19T16:00:28.525Z,2.75
2022-12-19T16:05:42.114Z,2.56
2022-12-19T16:08:13.359Z,2.61
2022-12-19T16:10:41.592Z,2.61
2022-12-19T16:13:18.376Z,2.56
2022-12-19T16:15:44.837Z,2.62
2022-12-19T16:18:13.213Z,2.61
2022-12-19T16:20:41.172Z,2.66
2022-12-19T16:23:09.516Z,2.64
2022-12-19T16:25:44.461Z,2.68
2022-12-19T16:28:39.169Z,2.76
2022-12-19T16:31:16.193Z,2.79
2022-12-19T16:33:42.612Z,2.94
2022-12-19T16:36:09.576Z,2.89
2022-12-19T16:38:36.178Z,2.92
2022-12-19T16:41:02.832Z,3.08
2022-12-19T16:43:36.912Z,3.09
2022-12-19T16:46:06.551Z,3.33
2022-12-19T16:48:33.060Z,3.52
2022-12-19T16:50:59.497Z,3.73
2022-12-19T16:53:26.113Z,3.80
2022-12-19T16:55:54.169Z,3.89
2022-12-19T16:58:23.152Z,3.82
2022-12-19T17:00:51.254Z,3.69
2022-12-19T17:03:40.027Z,3.91
2022-12-19T17:06:06.949Z,4.07
2022-12-19T17:08:33.362Z,4.29
2022-12-19T17:10:59.725Z,4.22
2022-12-19T17:13:26.446Z,4.05
2022-12-19T17:15:56.646Z,4.05
2022-12-19T17:18:42.443Z,3.81
2022-12-19T17:21:17.737Z,3.76
2022-12-19T17:23:44.263Z,3.63
2022-12-19T17:26:15.874Z,3.56
2022-12-19T17:28:44.205Z,3.68
2022-12-19T17:31:24.029Z,3.85
2022-12-19T17:33:50.620Z,3.92
2022-12-19T17:36:23.054Z,4.07
2022-12-19T17:38:51.377Z,3.92
2022-12-19T17:41:17.720Z,3.79
2022-12-19T17:43:44.178Z,3.80
2022-12-19T17:46:19.398Z,3.71
2022-12-19T17:48:48.269Z,3.66
2022-12-19T17:51:14.629Z,3.60
2022-12-19T17:53:40.960Z,3.43
2022-12-19T17:56:15.117Z,3.37
2022-12-19T17:58:41.561Z,3.31
2022-12-19T18:01:19.335Z,3.20
2022-12-19T18:03:46.974Z,3.02
2022-12-19T18:06:13.360Z,3.05
2022-12-19T18:08:39.983Z,2.92
2022-12-19T18:11:17.296Z,3.01
2022-12-19T18:13:43.672Z,2.98
2022-12-19T18:16:12.288Z,2.94
2022-12-19T18:18:39.137Z,3.07
2022-12-19T18:21:05.717Z,3.00
2022-12-19T18:23:32.672Z,2.90
2022-12-19T18:26:01.921Z,2.92
2022-12-19T18:28:29.586Z,2.88
2022-12-19T18:31:02.359Z,2.89
2022-12-19T18:33:36.661Z,3.05
2022-12-19T18:36:04.720Z,3.05
2022-12-19T18:38:31.053Z,3.00
2022-12-19T18:40:57.385Z,2.84
2022-12-19T18:43:23.759Z,2.82
2022-12-19T18:45:53.596Z,2.77
2022-12-19T18:48:26.075Z,2.87
2022-12-19T18:50:54.048Z,3.08
2022-12-19T18:53:21.809Z,3.20
2022-12-19T18:55:48.767Z,3.07
2022-12-19T18:58:15.131Z,2.93
2022-12-19T19:00:41.945Z,3.13
2022-12-19T19:03:14.515Z,3.11
2022-12-19T19:05:41.772Z,3.07
2022-12-19T19:08:21.942Z,3.05
2022-12-19T19:10:50.402Z,3.17
2022-12-19T19:13:18.320Z,3.29
2022-12-19T19:16:13.143Z,3.51
2022-12-19T19:18:41.196Z,3.41
2022-12-19T19:21:10.986Z,3.37
2022-12-19T19:23:41.670Z,3.35
2022-12-19T19:26:08.022Z,3.19
2022-12-19T19:28:34.393Z,3.21
2022-12-19T19:31:01.327Z,3.25
2022-12-19T19:33:35.648Z,3.22
2022-12-19T19:36:11.955Z,3.40
2022-12-19T19:38:41.888Z,3.43
2022-12-19T19:41:08.239Z,3.51
2022-12-19T19:43:35.462Z,3.56
2022-12-19T19:46:02.375Z,3.62
2022-12-19T19:48:28.854Z,3.78
2022-12-19T19:50:55.166Z,4.12
2022-12-19T19:53:21.501Z,4.17
2022-12-19T19:55:57.825Z,4.24
2022-12-19T19:58:24.223Z,4.22
2022-12-19T20:00:50.573Z,4.28
2022-12-19T20:03:22.579Z,4.47
2022-12-19T20:05:50.236Z,4.49
2022-12-19T20:08:16.675Z,4.52
2022-12-19T20:10:43.070Z,4.65
2022-12-19T20:13:09.460Z,4.68
2022-12-19T20:15:35.816Z,4.67
2022-12-19T20:18:02.608Z,4.84
2022-12-19T20:20:28.931Z,4.82
2022-12-19T20:22:55.272Z,4.84
2022-12-19T20:25:21.661Z,4.95
2022-12-19T20:27:48.029Z,4.90
2022-12-19T20:30:14.541Z,4.77
2022-12-19T20:32:40.913Z,4.70
2022-12-19T20:35:13.976Z,4.73
2022-12-19T20:37:41.033Z,4.86
2022-12-19T20:40:08.607Z,4.72
2022-12-19T20:42:34.977Z,4.58
2022-12-19T20:45:01.367Z,4.47
2022-12-19T20:47:28.057Z,4.53
2022-12-19T20:49:54.371Z,4.45
2022-12-19T20:52:20.702Z,4.37
2022-12-19T20:54:47.005Z,4.32
2022-12-19T20:57:13.365Z,4.36
2022-12-19T20:59:39.717Z,4.19
2022-12-19T21:02:06.577Z,4.30
2022-12-19T21:04:33.340Z,4.49
2022-12-19T21:06:59.831Z,4.66
2022-12-19T21:09:26.261Z,4.61
2022-12-19T21:11:52.637Z,4.64
2022-12-19T21:14:19.037Z,4.60
2022-12-19T21:16:45.509Z,4.55
2022-12-19T21:19:11.872Z,4.61
2022-12-19T21:21:38.243Z,4.53
2022-12-19T21:24:04.863Z,4.57
2022-12-19T21:26:31.188Z,4.56
2022-12-19T21:28:57.587Z,4.68
2022-12-19T21:31:27.360Z,4.56
2022-12-19T21:33:55.752Z,4.45
2022-12-19T21:36:23.290Z,4.38
2022-12-19T21:38:53.031Z,4.14
2022-12-19T21:41:19.799Z,4.21
2022-12-19T21:43:47.544Z,4.35
2022-12-19T21:46:15.646Z,4.39
2022-12-19T21:48:45.258Z,4.26
2022-12-19T21:51:12.663Z,4.24
2022-12-19T21:53:39.457Z,4.29
2022-12-19T21:56:27.492Z,4.17
2022-12-19T21:58:57.862Z,4.31
2022-12-19T22:01:24.927Z,4.39
2022-12-19T22:03:52.216Z,4.38
2022-12-19T22:06:27.793Z,4.39
2022-12-19T22:08:55.425Z,4.39
2022-12-19T22:11:22.298Z,4.35
2022-12-19T22:13:49.287Z,4.30
2022-12-19T22:16:16.919Z,4.24
2022-12-19T22:18:43.509Z,4.37
2022-12-19T22:21:14.951Z,4.43
2022-12-19T22:23:42.207Z,4.47
2022-12-19T22:26:12.374Z,4.51
2022-12-19T22:28:40.654Z,4.45
2022-12-19T22:31:19.685Z,4.44
2022-12-19T22:33:47.259Z,4.33
2022-12-19T22:36:15.504Z,4.33
2022-12-19T22:38:44.008Z,4.42
2022-12-19T22:41:11.231Z,4.39
2022-12-19T22:43:38.976Z,4.43
2022-12-19T22:46:14.295Z,4.34
2022-12-19T22:48:40.683Z,4.53
2022-12-19T22:51:07.554Z,4.60
2022-12-19T22:53:35.354Z,4.51
2022-12-19T22:56:22.948Z,4.58
2022-12-19T22:58:52.004Z,4.66
2022-12-19T23:01:19.790Z,4.79
2022-12-19T23:03:47.746Z,4.81
2022-12-19T23:06:14.902Z,4.84
2022-12-19T23:08:41.372Z,4.70
2022-12-19T23:11:14.716Z,4.77
2022-12-19T23:13:41.596Z,4.85
2022-12-19T23:16:09.092Z,4.82
2022-12-19T23:18:35.731Z,4.74
2022-12-19T23:21:23.159Z,4.75
2022-12-19T23:23:51.955Z,4.79
2022-12-19T23:26:31.311Z,4.88
2022-12-19T23:29:00.077Z,4.92
2022-12-19T23:31:27.832Z,4.94
2022-12-19T23:33:54.872Z,4.96
2022-12-19T23:36:45.104Z,5.04
2022-12-19T23:39:07.914Z,5.21
2022-12-19T23:41:34.243Z,5.22
2022-12-19T23:44:00.706Z,5.26
2022-12-19T23:46:27.910Z,5.42
2022-12-19T23:48:55.015Z,5.47
2022-12-19T23:51:24.341Z,5.59
2022-12-19T23:53:51.752Z,5.62
2022-12-19T23:56:23.947Z,5.71
2022-12-19T23:58:50.330Z,5.78
